createdAt,value
2023-11-07T00:01:29.227Z,3.60
2023-11-07T00:03:56.498Z,3.75
2023-11-07T00:06:23.598Z,3.38
2023-11-07T00:08:52.130Z,3.22
2023-11-07T00:11:19.676Z,3.35
2023-11-07T00:13:49.005Z,3.38
2023-11-07T00:16:15.729Z,3.70
2023-11-07T00:18:42.652Z,3.67
2023-11-07T00:21:09.683Z,3.28
2023-11-07T00:23:36.275Z,3.17
2023-11-07T00:26:03.523Z,2.88
2023-11-07T00:28:30.279Z,3.03
2023-11-07T00:30:57.024Z,3.03
2023-11-07T00:33:23.936Z,3.17
2023-11-07T00:35:50.664Z,3.17
2023-11-07T00:38:17.752Z,2.78
2023-11-07T00:40:44.409Z,2.80
2023-11-07T00:43:11.264Z,2.83
2023-11-07T00:45:37.912Z,3.17
2023-11-07T00:48:05.098Z,2.95
2023-11-07T00:50:31.887Z,3.40
2023-11-07T00:52:58.669Z,2.97
2023-11-07T00:55:25.301Z,3.10
2023-11-07T00:57:51.975Z,3.67
2023-11-07T01:00:18.881Z,3.35
2023-11-07T01:02:46.361Z,3.05
2023-11-07T01:05:13.850Z,3.13
2023-11-07T01:07:41.062Z,2.85
2023-11-07T01:10:08.875Z,3.17
2023-11-07T01:12:35.505Z,2.80
2023-11-07T01:15:06.953Z,3.35
2023-11-07T01:17:33.991Z,3.13
2023-11-07T01:20:00.762Z,3.00
2023-11-07T01:22:27.861Z,3.20
2023-11-07T01:24:54.801Z,4.15
2023-11-07T01:27:21.393Z,3.78
2023-11-07T01:29:48.193Z,3.47
2023-11-07T01:32:14.884Z,3.22
2023-11-07T01:34:41.579Z,3.05
2023-11-07T01:37:08.617Z,3.30
2023-11-07T01:39:35.761Z,2.80
2023-11-07T01:42:05.139Z,2.92
2023-11-07T01:44:32.007Z,3.47
2023-11-07T01:47:00.141Z,2.92
2023-11-07T01:49:28.875Z,3.28
2023-11-07T01:51:58.916Z,3.05
2023-11-07T01:54:27.790Z,3.53
2023-11-07T01:56:55.033Z,3.03
2023-11-07T01:59:21.833Z,3.40
2023-11-07T02:01:49.408Z,3.10
2023-11-07T02:04:16.287Z,3.40
2023-11-07T02:06:44.689Z,3.40
2023-11-07T02:09:11.291Z,3.05
2023-11-07T02:11:38.486Z,2.92
2023-11-07T02:14:05.245Z,3.15
2023-11-07T02:16:31.941Z,3.03
2023-11-07T02:18:59.858Z,2.80
2023-11-07T02:21:29.900Z,2.70
2023-11-07T02:23:56.634Z,2.90
2023-11-07T02:26:23.565Z,2.90
2023-11-07T02:28:51.611Z,3.20
2023-11-07T02:31:18.815Z,3.30
2023-11-07T02:33:45.681Z,4.03
2023-11-07T02:36:12.530Z,3.60
2023-11-07T02:38:39.526Z,2.83
2023-11-07T02:41:06.998Z,3.35
2023-11-07T02:43:33.906Z,3.20
2023-11-07T02:46:00.530Z,3.58
2023-11-07T02:48:27.337Z,3.10
2023-11-07T02:50:54.138Z,4.05
2023-11-07T02:53:20.765Z,3.83
2023-11-07T02:55:47.533Z,3.55
2023-11-07T02:58:16.223Z,3.53
2023-11-07T03:00:45.190Z,3.90
2023-11-07T03:03:12.109Z,4.18
2023-11-07T03:05:40.074Z,3.70
2023-11-07T03:08:08.678Z,4.93
2023-11-07T03:10:36.026Z,3.72
2023-11-07T03:13:03.672Z,3.58
2023-11-07T03:15:30.704Z,3.72
2023-11-07T03:17:58.218Z,4.20
2023-11-07T03:20:24.932Z,3.60
2023-11-07T03:22:51.551Z,4.60
2023-11-07T03:25:18.928Z,4.70
2023-11-07T03:27:46.842Z,5.20
2023-11-07T03:30:14.176Z,4.43
2023-11-07T03:32:40.956Z,4.55
2023-11-07T03:35:08.214Z,3.97
2023-11-07T03:37:34.868Z,4.10
2023-11-07T03:40:01.759Z,3.80
2023-11-07T03:42:28.624Z,3.50
2023-11-07T03:44:55.309Z,3.10
2023-11-07T03:47:23.225Z,3.08
2023-11-07T03:49:49.844Z,3.22
2023-11-07T03:52:17.336Z,2.88
2023-11-07T03:54:44.009Z,3.30
2023-11-07T03:57:10.696Z,3.13
2023-11-07T03:59:37.358Z,3.42
2023-11-07T04:02:06.126Z,3.08
2023-11-07T04:04:32.774Z,3.20
2023-11-07T04:06:59.613Z,2.97
2023-11-07T04:09:26.223Z,3.13
2023-11-07T04:11:53.327Z,3.35
2023-11-07T04:14:20.121Z,3.72
2023-11-07T04:16:46.743Z,5.00
2023-11-07T04:19:13.657Z,5.25
2023-11-07T04:21:40.416Z,5.10
2023-11-07T04:24:07.512Z,4.43
2023-11-07T04:26:34.267Z,4.40
2023-11-07T04:29:00.946Z,4.55
2023-11-07T04:31:30.267Z,4.45
2023-11-07T04:33:57.156Z,8.90
2023-11-07T04:36:24.121Z,24.02
2023-11-07T04:38:51.376Z,15.45
2023-11-07T04:41:18.063Z,15.77
2023-11-07T04:43:45.366Z,9.00
2023-11-07T04:46:14.274Z,8.02
2023-11-07T04:48:41.243Z,6.93
2023-11-07T04:51:08.147Z,7.60
2023-11-07T04:53:34.943Z,7.63
2023-11-07T04:56:01.720Z,6.85
2023-11-07T04:58:28.328Z,6.70
2023-11-07T05:00:55.390Z,5.95
2023-11-07T05:03:29.697Z,5.13
2023-11-07T05:06:02.493Z,8.02
2023-11-07T05:08:30.646Z,7.63
2023-11-07T05:10:57.440Z,5.20
2023-11-07T05:13:24.076Z,6.57
2023-11-07T05:15:50.819Z,4.45
2023-11-07T05:18:18.046Z,4.18
2023-11-07T05:20:44.792Z,3.92
2023-11-07T05:23:11.530Z,4.20
2023-11-07T05:25:38.223Z,4.55
2023-11-07T05:28:07.878Z,4.28
2023-11-07T05:30:34.662Z,3.85
2023-11-07T05:33:01.403Z,3.40
2023-11-07T05:35:28.489Z,3.40
2023-11-07T05:37:55.792Z,3.70
2023-11-07T05:40:25.066Z,3.63
2023-11-07T05:42:53.303Z,3.60
2023-11-07T05:45:20.433Z,4.03
2023-11-07T05:47:47.354Z,3.70
2023-11-07T05:50:14.564Z,3.22
2023-11-07T05:52:41.309Z,4.40
2023-11-07T05:55:08.676Z,3.75
2023-11-07T05:57:36.973Z,3.83
2023-11-07T06:00:07.982Z,3.95
2023-11-07T06:02:35.173Z,3.50
2023-11-07T06:05:02.015Z,3.67
2023-11-07T06:07:28.782Z,3.70
2023-11-07T06:09:55.430Z,3.55
2023-11-07T06:12:22.256Z,3.92
2023-11-07T06:14:49.050Z,8.25
2023-11-07T06:17:18.379Z,6.15
2023-11-07T06:19:47.403Z,8.15
2023-11-07T06:22:15.755Z,7.90
2023-11-07T06:24:43.268Z,8.93
2023-11-07T06:27:12.526Z,8.95
2023-11-07T06:29:47.950Z,9.68
2023-11-07T06:32:15.117Z,8.98
2023-11-07T06:34:42.642Z,8.15
2023-11-07T06:37:09.370Z,8.93
2023-11-07T06:39:36.003Z,8.45
2023-11-07T06:42:02.763Z,8.68
2023-11-07T06:44:30.132Z,7.57
2023-11-07T06:46:57.076Z,7.38
2023-11-07T06:49:25.477Z,7.40
2023-11-07T06:51:52.631Z,4.22
2023-11-07T06:54:19.625Z,6.10
2023-11-07T06:56:48.084Z,5.78
2023-11-07T06:59:15.050Z,4.90
2023-11-07T07:01:41.905Z,5.45
2023-11-07T07:04:08.743Z,5.50
2023-11-07T07:06:37.191Z,6.70
2023-11-07T07:09:09.561Z,9.27
2023-11-07T07:11:36.416Z,8.95
2023-11-07T07:14:04.383Z,8.38
2023-11-07T07:16:33.466Z,8.52
2023-11-07T07:19:00.881Z,8.15
2023-11-07T07:21:27.541Z,8.02
2023-11-07T07:23:54.281Z,8.02
2023-11-07T07:26:23.501Z,7.95
2023-11-07T07:28:53.599Z,7.75
2023-11-07T07:31:28.670Z,6.30
2023-11-07T07:33:57.668Z,6.60
2023-11-07T07:36:24.607Z,7.43
2023-11-07T07:38:53.809Z,7.60
2023-11-07T07:41:21.785Z,7.22
2023-11-07T07:43:48.668Z,6.65
2023-11-07T07:46:16.463Z,7.90
2023-11-07T07:48:46.424Z,7.47
2023-11-07T07:51:15.374Z,7.40
2023-11-07T07:53:43.151Z,7.10
2023-11-07T07:56:14.975Z,5.68
2023-11-07T07:58:45.048Z,4.65
2023-11-07T08:01:11.701Z,4.70
2023-11-07T08:03:39.748Z,4.85
2023-11-07T08:06:07.077Z,4.22
2023-11-07T08:08:33.863Z,4.20
2023-11-07T08:11:00.776Z,4.30
2023-11-07T08:13:27.503Z,3.28
2023-11-07T08:15:54.543Z,3.47
2023-11-07T08:18:23.261Z,4.30
2023-11-07T08:20:51.592Z,3.70
2023-11-07T08:23:18.705Z,3.58
2023-11-07T08:25:45.361Z,3.08
2023-11-07T08:28:12.006Z,3.40
2023-11-07T08:30:39.426Z,2.95
2023-11-07T08:33:08.306Z,2.58
2023-11-07T08:35:37.584Z,2.10
2023-11-07T08:38:04.316Z,2.00
2023-11-07T08:40:31.185Z,2.25
2023-11-07T08:42:57.819Z,2.20
2023-11-07T08:45:25.325Z,1.75
2023-11-07T08:47:53.513Z,1.95
2023-11-07T08:50:22.309Z,1.80
2023-11-07T08:52:51.500Z,1.85
2023-11-07T08:55:19.672Z,2.00
2023-11-07T08:57:47.515Z,2.00
2023-11-07T09:00:23.477Z,2.22
2023-11-07T09:02:51.496Z,2.08
2023-11-07T09:05:18.743Z,2.00
2023-11-07T09:07:46.104Z,2.20
2023-11-07T09:10:12.963Z,2.17
2023-11-07T09:12:43.375Z,2.00
2023-11-07T09:15:12.862Z,1.92
2023-11-07T09:17:44.289Z,2.22
2023-11-07T09:20:15.851Z,1.55
2023-11-07T09:22:43.294Z,1.70
2023-11-07T09:25:11.037Z,1.90
2023-11-07T09:27:40.495Z,2.08
2023-11-07T09:30:12.880Z,2.03
2023-11-07T09:32:43.244Z,1.88
2023-11-07T09:35:10.596Z,1.88
2023-11-07T09:37:41.112Z,1.95
2023-11-07T09:40:22.029Z,1.77
2023-11-07T09:42:52.089Z,1.95
2023-11-07T09:45:20.698Z,1.85
2023-11-07T09:47:49.339Z,1.88
2023-11-07T09:50:23.794Z,1.90
2023-11-07T09:52:52.423Z,2.55
2023-11-07T09:55:19.367Z,1.90
2023-11-07T09:58:05.293Z,1.83
2023-11-07T10:00:44.749Z,2.40
2023-11-07T10:03:12.531Z,4.50
2023-11-07T10:05:40.896Z,1.98
2023-11-07T10:08:07.863Z,1.85
2023-11-07T10:10:35.732Z,1.80
2023-11-07T10:13:10.484Z,1.80
2023-11-07T10:15:38.466Z,1.88
2023-11-07T10:18:10.460Z,2.05
2023-11-07T10:20:56.245Z,2.35
2023-11-07T10:23:23.725Z,2.65
2023-11-07T10:25:51.651Z,2.22
2023-11-07T10:28:21.587Z,2.15
2023-11-07T10:30:49.795Z,2.45
2023-11-07T10:33:30.434Z,1.90
2023-11-07T10:36:03.252Z,2.10
2023-11-07T10:38:31.298Z,2.28
2023-11-07T10:40:59.310Z,1.90
2023-11-07T10:43:37.154Z,1.80
2023-11-07T10:46:10.103Z,2.80
2023-11-07T10:48:42.103Z,2.47
2023-11-07T10:51:14.645Z,2.88
2023-11-07T10:53:45.644Z,2.70
2023-11-07T10:56:21.530Z,1.67
2023-11-07T10:59:01.276Z,2.10
2023-11-07T11:01:35.314Z,2.30
2023-11-07T11:04:04.123Z,3.22
2023-11-07T11:06:33.066Z,2.42
2023-11-07T11:09:07.609Z,2.05
2023-11-07T11:11:35.531Z,1.90
2023-11-07T11:14:05.390Z,2.53
2023-11-07T11:16:32.732Z,2.63
2023-11-07T11:19:08.110Z,2.70
2023-11-07T11:21:52.787Z,2.47
2023-11-07T11:24:32.732Z,2.10
2023-11-07T11:27:21.547Z,2.10
2023-11-07T11:29:48.360Z,1.92
2023-11-07T11:32:28.682Z,2.42
2023-11-07T11:35:20.403Z,2.40
2023-11-07T11:38:21.002Z,2.10
2023-11-07T11:41:04.170Z,1.92
2023-11-07T11:43:35.266Z,1.92
2023-11-07T11:46:17.020Z,1.95
2023-11-07T11:48:50.994Z,2.70
2023-11-07T11:51:33.654Z,2.53
2023-11-07T11:54:01.208Z,2.63
2023-11-07T11:56:29.432Z,2.55
2023-11-07T11:59:11.970Z,2.05
2023-11-07T12:01:59.967Z,2.17
2023-11-07T12:04:38.295Z,2.08
2023-11-07T12:07:09.145Z,2.40
2023-11-07T12:09:46.440Z,2.78
2023-11-07T12:12:17.113Z,2.80
2023-11-07T12:14:52.289Z,2.20
2023-11-07T12:17:19.395Z,2.08
2023-11-07T12:19:46.092Z,1.75
2023-11-07T12:22:17.524Z,1.90
2023-11-07T12:24:44.735Z,1.70
2023-11-07T12:27:11.582Z,2.60
2023-11-07T12:29:38.465Z,1.90
2023-11-07T12:32:05.934Z,2.10
2023-11-07T12:34:36.730Z,2.08
2023-11-07T12:37:09.494Z,2.03
2023-11-07T12:39:37.294Z,1.92
2023-11-07T12:42:04.814Z,2.13
2023-11-07T12:44:31.557Z,1.95
2023-11-07T12:46:58.780Z,1.90
2023-11-07T12:49:26.062Z,2.58
2023-11-07T12:51:53.314Z,2.30
2023-11-07T12:54:29.607Z,1.80
2023-11-07T12:56:56.379Z,2.20
2023-11-07T12:59:23.234Z,2.33
2023-11-07T13:01:49.919Z,2.55
2023-11-07T13:04:18.874Z,2.65
2023-11-07T13:07:00.301Z,2.15
2023-11-07T13:09:32.002Z,4.25
2023-11-07T13:12:16.410Z,2.95
2023-11-07T13:14:43.445Z,2.13
2023-11-07T13:17:12.635Z,2.35
2023-11-07T13:19:39.736Z,2.20
2023-11-07T13:22:09.361Z,2.05
2023-11-07T13:24:36.285Z,2.78
2023-11-07T13:27:03.092Z,3.30
2023-11-07T13:29:31.457Z,3.65
2023-11-07T13:31:58.540Z,5.45
2023-11-07T13:34:27.771Z,3.40
2023-11-07T13:36:56.203Z,3.10
2023-11-07T13:39:25.586Z,2.67
2023-11-07T13:41:53.499Z,2.50
2023-11-07T13:44:20.332Z,2.40
2023-11-07T13:46:47.987Z,2.10
2023-11-07T13:49:15.274Z,1.77
2023-11-07T13:51:42.589Z,2.15
2023-11-07T13:54:09.849Z,1.92
2023-11-07T13:56:37.106Z,1.70
2023-11-07T13:59:07.191Z,2.03
2023-11-07T14:01:37.932Z,2.08
2023-11-07T14:04:06.783Z,2.00
2023-11-07T14:06:34.146Z,1.80
2023-11-07T14:09:00.982Z,2.25
2023-11-07T14:11:28.151Z,2.22
2023-11-07T14:13:55.577Z,2.00
2023-11-07T14:16:24.019Z,2.10
2023-11-07T14:18:51.170Z,2.20
2023-11-07T14:21:18.196Z,2.15
2023-11-07T14:23:47.671Z,2.63
2023-11-07T14:26:14.770Z,2.47
2023-11-07T14:28:54.805Z,4.72
2023-11-07T14:31:29.858Z,4.25
2023-11-07T14:33:59.093Z,4.60
2023-11-07T14:36:25.846Z,3.75
2023-11-07T14:38:53.782Z,3.25
2023-11-07T14:41:21.494Z,3.60
2023-11-07T14:43:48.802Z,2.83
2023-11-07T14:46:17.798Z,2.38
2023-11-07T14:48:44.922Z,2.20
2023-11-07T14:51:12.795Z,2.40
2023-11-07T14:53:39.571Z,2.10
2023-11-07T14:56:06.338Z,2.13
2023-11-07T14:58:34.480Z,1.92
2023-11-07T15:01:01.384Z,2.85
2023-11-07T15:03:28.242Z,2.38
2023-11-07T15:05:55.366Z,3.30
2023-11-07T15:08:23.391Z,2.40
2023-11-07T15:10:50.145Z,2.60
2023-11-07T15:13:16.839Z,3.70
2023-11-07T15:15:43.720Z,2.97
2023-11-07T15:18:11.704Z,8.40
2023-11-07T15:20:41.358Z,9.02
2023-11-07T15:23:08.803Z,4.25
2023-11-07T15:25:36.307Z,3.90
2023-11-07T15:28:04.422Z,4.25
2023-11-07T15:30:32.454Z,4.32
2023-11-07T15:33:01.911Z,3.80
2023-11-07T15:35:35.731Z,4.40
2023-11-07T15:38:03.260Z,3.50
2023-11-07T15:40:29.881Z,3.47
2023-11-07T15:42:56.546Z,3.35
2023-11-07T15:45:23.321Z,3.70
2023-11-07T15:47:50.385Z,3.50
2023-11-07T15:50:18.721Z,3.78
2023-11-07T15:53:00.070Z,4.35
2023-11-07T15:55:35.460Z,4.10
2023-11-07T15:58:02.834Z,4.30
2023-11-07T16:00:29.723Z,3.80
2023-11-07T16:02:57.111Z,3.40
2023-11-07T16:05:28.238Z,3.35
2023-11-07T16:07:56.048Z,3.25
2023-11-07T16:10:22.887Z,3.38
2023-11-07T16:12:52.252Z,2.97
2023-11-07T16:15:19.562Z,2.90
2023-11-07T16:17:50.222Z,2.70
2023-11-07T16:20:20.470Z,3.00
2023-11-07T16:22:47.244Z,2.80
2023-11-07T16:25:14.416Z,3.28
2023-11-07T16:27:41.051Z,2.42
2023-11-07T16:30:12.430Z,2.85
2023-11-07T16:32:39.497Z,3.00
2023-11-07T16:35:06.953Z,2.92
2023-11-07T16:37:36.981Z,2.80
2023-11-07T16:40:09.888Z,2.92
2023-11-07T16:42:36.762Z,2.78
2023-11-07T16:45:07.375Z,2.60
2023-11-07T16:47:35.694Z,2.85
2023-11-07T16:50:02.840Z,2.47
2023-11-07T16:52:30.072Z,2.78
2023-11-07T16:54:57.162Z,2.47
2023-11-07T16:57:24.297Z,2.47
2023-11-07T16:59:52.432Z,3.00
2023-11-07T17:02:20.290Z,2.70
2023-11-07T17:04:47.704Z,3.10
2023-11-07T17:07:15.260Z,3.10
2023-11-07T17:09:42.455Z,3.35
2023-11-07T17:12:09.755Z,2.90
2023-11-07T17:14:38.407Z,3.17
2023-11-07T17:17:06.565Z,4.80
2023-11-07T17:19:33.520Z,4.10
2023-11-07T17:22:00.453Z,5.13
2023-11-07T17:24:28.844Z,7.05
2023-11-07T17:26:56.420Z,4.63
2023-11-07T17:29:23.811Z,4.72
2023-11-07T17:31:50.476Z,4.60
2023-11-07T17:34:17.915Z,4.20
2023-11-07T17:36:47.653Z,3.70
2023-11-07T17:39:17.312Z,3.20
2023-11-07T17:41:47.880Z,3.50
2023-11-07T17:44:18.787Z,3.22
2023-11-07T17:46:46.339Z,3.45
2023-11-07T17:49:16.015Z,3.25
2023-11-07T17:51:45.707Z,2.97
2023-11-07T17:54:13.173Z,3.17
2023-11-07T17:56:40.129Z,3.05
2023-11-07T17:59:08.280Z,3.38
2023-11-07T18:01:36.735Z,3.47
2023-11-07T18:04:05.793Z,3.33
2023-11-07T18:06:32.593Z,2.80
2023-11-07T18:09:01.539Z,3.15
2023-11-07T18:11:35.439Z,5.38
2023-11-07T18:16:33.593Z,6.90
2023-11-07T18:19:00.673Z,6.60
2023-11-07T18:21:29.035Z,4.80
2023-11-07T18:23:56.348Z,4.57
2023-11-07T18:26:23.646Z,4.82
2023-11-07T18:28:50.948Z,5.53
2023-11-07T18:31:18.350Z,6.68
2023-11-07T18:33:51.213Z,4.82
2023-11-07T18:36:19.514Z,4.53
2023-11-07T18:38:47.780Z,3.92
2023-11-07T18:41:17.768Z,4.25
2023-11-07T18:43:44.613Z,4.05
2023-11-07T18:46:13.249Z,4.03
2023-11-07T18:48:40.163Z,4.18
2023-11-07T18:51:06.982Z,3.30
2023-11-07T18:53:43.303Z,3.70
2023-11-07T18:56:12.959Z,4.05
2023-11-07T18:58:39.787Z,3.78
2023-11-07T19:01:10.232Z,4.20
2023-11-07T19:03:37.268Z,4.10
2023-11-07T19:06:04.727Z,4.05
2023-11-07T19:08:32.598Z,4.45
2023-11-07T19:11:00.961Z,4.07
2023-11-07T19:13:28.043Z,4.60
2023-11-07T19:15:56.367Z,4.28
2023-11-07T19:18:24.137Z,4.30
2023-11-07T19:20:51.493Z,4.25
2023-11-07T19:23:20.520Z,4.15
2023-11-07T19:25:48.092Z,4.03
2023-11-07T19:28:14.835Z,4.40
2023-11-07T19:30:41.811Z,4.40
2023-11-07T19:33:10.233Z,4.18
2023-11-07T19:35:37.021Z,4.35
2023-11-07T19:38:06.703Z,4.22
2023-11-07T19:40:34.493Z,3.83
2023-11-07T19:43:01.132Z,3.90
2023-11-07T19:45:27.964Z,4.75
2023-11-07T19:47:59.918Z,4.60
2023-11-07T19:50:27.805Z,3.65
2023-11-07T19:53:06.390Z,7.85
2023-11-07T19:55:38.541Z,10.20
2023-11-07T19:58:12.777Z,14.07
2023-11-07T20:03:07.892Z,13.48
2023-11-07T20:05:37.522Z,12.60
2023-11-07T20:08:04.270Z,13.25
2023-11-07T20:10:32.277Z,15.35
2023-11-07T20:12:59.602Z,10.57
2023-11-07T20:15:26.995Z,8.95
2023-11-07T20:17:53.837Z,8.60
2023-11-07T20:20:21.478Z,7.65
2023-11-07T20:22:48.179Z,6.70
2023-11-07T20:25:15.536Z,5.70
2023-11-07T20:27:42.317Z,6.10
2023-11-07T20:30:12.026Z,5.38
2023-11-07T20:32:38.987Z,5.50
2023-11-07T20:35:06.636Z,4.93
2023-11-07T20:37:33.375Z,5.00
2023-11-07T20:40:00.183Z,6.32
2023-11-07T20:42:27.116Z,8.35
2023-11-07T20:45:04.071Z,8.43
2023-11-07T20:47:39.283Z,6.53
2023-11-07T20:50:07.017Z,7.85
2023-11-07T20:52:34.332Z,6.05
2023-11-07T20:55:01.619Z,5.57
2023-11-07T20:57:28.492Z,9.80
2023-11-07T20:59:55.820Z,8.25
2023-11-07T21:02:22.504Z,7.53
2023-11-07T21:04:49.428Z,8.30
2023-11-07T21:07:16.947Z,9.05
2023-11-07T21:09:44.017Z,8.57
2023-11-07T21:12:10.846Z,8.70
2023-11-07T21:14:39.325Z,8.02
2023-11-07T21:17:06.153Z,7.75
2023-11-07T21:19:34.106Z,7.65
2023-11-07T21:22:01.557Z,7.63
2023-11-07T21:24:29.162Z,6.35
2023-11-07T21:26:55.803Z,5.03
2023-11-07T21:29:22.746Z,5.25
2023-11-07T21:31:53.517Z,5.70
2023-11-07T21:34:21.644Z,5.22
2023-11-07T21:36:49.695Z,4.28
2023-11-07T21:39:20.855Z,3.90
2023-11-07T21:41:50.077Z,3.55
2023-11-07T21:44:17.192Z,4.38
2023-11-07T21:46:43.866Z,4.38
2023-11-07T21:49:10.697Z,3.70
2023-11-07T21:51:37.558Z,3.88
2023-11-07T21:54:05.774Z,3.05
2023-11-07T21:56:32.707Z,3.35
2023-11-07T21:58:59.495Z,3.58
2023-11-07T22:01:27.126Z,3.92
2023-11-07T22:03:54.507Z,4.20
2023-11-07T22:06:21.315Z,5.82
2023-11-07T22:08:48.026Z,6.70
2023-11-07T22:11:14.656Z,4.80
2023-11-07T22:13:41.468Z,3.53
2023-11-07T22:16:08.160Z,4.57
2023-11-07T22:18:34.814Z,4.15
2023-11-07T22:21:01.582Z,4.00
2023-11-07T22:23:28.833Z,3.80
2023-11-07T22:25:58.290Z,3.85
2023-11-07T22:28:25.024Z,3.72
2023-11-07T22:30:53.376Z,4.10
2023-11-07T22:33:20.258Z,3.60
2023-11-07T22:35:50.275Z,3.72
2023-11-07T22:38:17.200Z,3.83
2023-11-07T22:40:43.921Z,3.25
2023-11-07T22:43:11.813Z,3.22
2023-11-07T22:45:38.614Z,3.63
2023-11-07T22:48:05.915Z,3.30
2023-11-07T22:50:32.690Z,3.13
2023-11-07T22:52:59.504Z,3.30
2023-11-07T22:55:26.784Z,3.72
2023-11-07T22:57:53.565Z,3.78
2023-11-07T23:00:39.139Z,3.65
2023-11-07T23:03:12.222Z,3.20
2023-11-07T23:05:40.688Z,3.30
2023-11-07T23:08:11.310Z,3.35
2023-11-07T23:10:41.931Z,3.20
2023-11-07T23:13:09.104Z,3.78
2023-11-07T23:15:37.615Z,3.33
2023-11-07T23:18:06.187Z,3.30
2023-11-07T23:20:35.341Z,11.57
2023-11-07T23:23:02.939Z,16.45
2023-11-07T23:25:29.597Z,17.10
2023-11-07T23:27:56.258Z,14.27
2023-11-07T23:30:22.995Z,13.65
2023-11-07T23:32:50.201Z,13.05
2023-11-07T23:35:18.586Z,8.80
2023-11-07T23:37:45.532Z,7.85
2023-11-07T23:40:13.065Z,8.40
2023-11-07T23:42:42.610Z,6.97
2023-11-07T23:45:10.846Z,4.90
2023-11-07T23:47:38.370Z,5.60
2023-11-07T23:50:06.595Z,4.93
2023-11-07T23:52:33.807Z,3.65
2023-11-07T23:55:00.467Z,4.43
2023-11-07T23:57:31.119Z,3.80
2023-11-07T23:59:57.954Z,15.18
